sensor_id;sensor_type;location;lat;lon;timestamp;pressure;altitude;pressure_sealevel;temperature;humidity
56632;BME280;42503;39.928;-75.152;2023-04-24T00:04:58;101374.78;;;22.88;29.59
56632;BME280;42503;39.928;-75.152;2023-04-24T00:15:04;101346.91;;;22.67;29.55
56632;BME280;42503;39.928;-75.152;2023-04-24T00:25:06;101377.59;;;22.77;29.67
56632;BME280;42503;39.928;-75.152;2023-04-24T00:35:07;101377.34;;;22.69;28.80
56632;BME280;42503;39.928;-75.152;2023-04-24T00:45:09;101377.94;;;22.50;29.52
56632;BME280;42503;39.928;-75.152;2023-04-24T00:55:10;101419.44;;;22.67;29.42
56632;BME280;42503;39.928;-75.152;2023-04-24T01:05:13;101441.75;;;22.67;30.10
56632;BME280;42503;39.928;-75.152;2023-04-24T01:15:15;101439.00;;;22.57;29.55
56632;BME280;42503;39.928;-75.152;2023-04-24T01:25:17;101462.97;;;22.53;29.04
56632;BME280;42503;39.928;-75.152;2023-04-24T01:35:19;101482.50;;;22.48;29.07
56632;BME280;42503;39.928;-75.152;2023-04-24T01:45:21;101504.25;;;22.51;28.64
56632;BME280;42503;39.928;-75.152;2023-04-24T01:55:22;101510.94;;;22.35;28.69
56632;BME280;42503;39.928;-75.152;2023-04-24T02:05:23;101497.81;;;22.15;27.95
56632;BME280;42503;39.928;-75.152;2023-04-24T02:15:25;101534.88;;;22.20;28.16
56632;BME280;42503;39.928;-75.152;2023-04-24T02:25:26;101553.84;;;22.13;27.56
56632;BME280;42503;39.928;-75.152;2023-04-24T02:35:30;101572.19;;;22.04;27.21
56632;BME280;42503;39.928;-75.152;2023-04-24T02:45:32;101574.34;;;21.87;27.59
56632;BME280;42503;39.928;-75.152;2023-04-24T02:55:35;101575.44;;;21.86;28.48
56632;BME280;42503;39.928;-75.152;2023-04-24T03:05:37;101436.94;;;21.13;31.00
56632;BME280;42503;39.928;-75.152;2023-04-24T03:15:38;101615.19;;;22.23;31.39
56632;BME280;42503;39.928;-75.152;2023-04-24T03:25:42;101604.88;;;22.29;31.56
56632;BME280;42503;39.928;-75.152;2023-04-24T03:35:43;101627.25;;;22.49;32.06
56632;BME280;42503;39.928;-75.152;2023-04-24T03:45:45;101651.56;;;22.64;32.69
56632;BME280;42503;39.928;-75.152;2023-04-24T03:55:50;101647.13;;;22.78;32.77
56632;BME280;42503;39.928;-75.152;2023-04-24T04:05:51;101665.31;;;22.91;33.01
56632;BME280;42503;39.928;-75.152;2023-04-24T04:15:54;101676.50;;;23.01;33.32
56632;BME280;42503;39.928;-75.152;2023-04-24T04:25:55;101626.25;;;22.91;33.16
56632;BME280;42503;39.928;-75.152;2023-04-24T04:35:57;101659.19;;;23.20;33.18
56632;BME280;42503;39.928;-75.152;2023-04-24T04:45:59;101665.06;;;23.28;33.30
56632;BME280;42503;39.928;-75.152;2023-04-24T04:56:01;101657.50;;;23.34;33.55
56632;BME280;42503;39.928;-75.152;2023-04-24T05:06:08;101662.78;;;23.41;33.48
56632;BME280;42503;39.928;-75.152;2023-04-24T05:16:10;101642.16;;;23.42;33.25
56632;BME280;42503;39.928;-75.152;2023-04-24T05:26:11;101610.88;;;23.34;33.41
56632;BME280;42503;39.928;-75.152;2023-04-24T05:36:14;101604.16;;;23.36;33.24
56632;BME280;42503;39.928;-75.152;2023-04-24T05:46:15;101641.81;;;23.58;33.19
56632;BME280;42503;39.928;-75.152;2023-04-24T05:56:22;101625.34;;;23.57;33.29
56632;BME280;42503;39.928;-75.152;2023-04-24T06:06:24;101636.00;;;23.65;33.42
56632;BME280;42503;39.928;-75.152;2023-04-24T06:16:26;101632.91;;;23.67;33.28
56632;BME280;42503;39.928;-75.152;2023-04-24T06:26:30;101647.44;;;23.69;33.32
56632;BME280;42503;39.928;-75.152;2023-04-24T06:36:37;101636.81;;;23.71;33.63
56632;BME280;42503;39.928;-75.152;2023-04-24T06:46:38;101646.03;;;23.71;33.67
56632;BME280;42503;39.928;-75.152;2023-04-24T06:56:40;101636.00;;;23.65;33.65
56632;BME280;42503;39.928;-75.152;2023-04-24T07:06:41;101643.78;;;23.68;33.49
56632;BME280;42503;39.928;-75.152;2023-04-24T07:16:45;101638.78;;;23.60;33.38
56632;BME280;42503;39.928;-75.152;2023-04-24T07:26:47;101642.97;;;23.68;33.47
56632;BME280;42503;39.928;-75.152;2023-04-24T07:36:48;101612.78;;;23.54;33.44
56632;BME280;42503;39.928;-75.152;2023-04-24T07:46:50;101654.69;;;23.70;33.72
56632;BME280;42503;39.928;-75.152;2023-04-24T07:56:54;101622.56;;;23.57;33.44
56632;BME280;42503;39.928;-75.152;2023-04-24T08:06:56;101602.19;;;23.51;33.52
56632;BME280;42503;39.928;-75.152;2023-04-24T08:16:57;101619.75;;;23.67;33.41
56632;BME280;42503;39.928;-75.152;2023-04-24T08:27:01;101617.81;;;23.68;33.59
56632;BME280;42503;39.928;-75.152;2023-04-24T08:37:05;101612.19;;;23.63;33.59
56632;BME280;42503;39.928;-75.152;2023-04-24T08:47:07;101630.94;;;23.52;33.64
56632;BME280;42503;39.928;-75.152;2023-04-24T08:57:09;101646.28;;;23.54;33.61
56632;BME280;42503;39.928;-75.152;2023-04-24T09:07:12;101635.44;;;23.48;33.70
56632;BME280;42503;39.928;-75.152;2023-04-24T09:17:15;101668.09;;;23.63;33.61
56632;BME280;42503;39.928;-75.152;2023-04-24T09:27:16;101668.91;;;23.63;33.43
56632;BME280;42503;39.928;-75.152;2023-04-24T09:37:29;101626.22;;;23.42;33.53
56632;BME280;42503;39.928;-75.152;2023-04-24T09:47:36;101687.94;;;23.61;33.67
56632;BME280;42503;39.928;-75.152;2023-04-24T09:57:47;101680.94;;;23.58;34.00
56632;BME280;42503;39.928;-75.152;2023-04-24T10:07:49;101687.34;;;23.59;33.97
56632;BME280;42503;39.928;-75.152;2023-04-24T10:17:51;101686.53;;;23.58;34.00
56632;BME280;42503;39.928;-75.152;2023-04-24T10:27:56;101717.56;;;23.52;35.09
56632;BME280;42503;39.928;-75.152;2023-04-24T10:38:15;101691.31;;;23.38;34.84
56632;BME280;42503;39.928;-75.152;2023-04-24T10:48:17;101703.59;;;23.42;34.84
56632;BME280;42503;39.928;-75.152;2023-04-24T10:58:23;101702.47;;;23.38;34.67
56632;BME280;42503;39.928;-75.152;2023-04-24T11:08:45;101747.72;;;23.34;34.79
56632;BME280;42503;39.928;-75.152;2023-04-24T11:18:51;101758.88;;;23.34;34.80
56632;BME280;42503;39.928;-75.152;2023-04-24T11:29:06;101747.72;;;23.29;34.94
56632;BME280;42503;39.928;-75.152;2023-04-24T11:39:08;101770.59;;;23.31;34.81
56632;BME280;42503;39.928;-75.152;2023-04-24T11:49:09;101803.84;;;23.28;34.83
56632;BME280;42503;39.928;-75.152;2023-04-24T11:59:10;101791.25;;;23.20;34.89
56632;BME280;42503;39.928;-75.152;2023-04-24T12:09:12;101816.09;;;23.17;35.02
56632;BME280;42503;39.928;-75.152;2023-04-24T12:19:23;101821.38;;;23.18;34.65
56632;BME280;42503;39.928;-75.152;2023-04-24T12:29:28;101807.41;;;23.08;34.85
56632;BME280;42503;39.928;-75.152;2023-04-24T12:39:29;101804.94;;;23.17;34.58
56632;BME280;42503;39.928;-75.152;2023-04-24T12:49:30;101784.53;;;23.16;34.79
56632;BME280;42503;39.928;-75.152;2023-04-24T12:59:32;101757.44;;;22.96;34.69
56632;BME280;42503;39.928;-75.152;2023-04-24T13:09:34;101786.22;;;23.12;35.00
56632;BME280;42503;39.928;-75.152;2023-04-24T13:19:36;101784.53;;;23.11;34.54
56632;BME280;42503;39.928;-75.152;2023-04-24T13:29:38;101791.25;;;23.10;34.83
56632;BME280;42503;39.928;-75.152;2023-04-24T13:39:40;101751.56;;;22.93;34.83
56632;BME280;42503;39.928;-75.152;2023-04-24T13:49:42;101743.19;;;22.93;34.50
56632;BME280;42503;39.928;-75.152;2023-04-24T13:59:45;101772.78;;;23.09;34.65
56632;BME280;42503;39.928;-75.152;2023-04-24T14:09:46;101754.38;;;23.08;34.91
56632;BME280;42503;39.928;-75.152;2023-04-24T14:19:47;101762.50;;;23.10;34.37
56632;BME280;42503;39.928;-75.152;2023-04-24T14:29:49;101759.69;;;23.10;34.55
56632;BME280;42503;39.928;-75.152;2023-04-24T14:39:50;101755.19;;;23.08;34.71
56632;BME280;42503;39.928;-75.152;2023-04-24T14:49:51;101756.03;;;23.09;34.39
56632;BME280;42503;39.928;-75.152;2023-04-24T14:59:53;101752.16;;;23.10;34.61
56632;BME280;42503;39.928;-75.152;2023-04-24T15:09:57;101741.53;;;23.02;34.63
56632;BME280;42503;39.928;-75.152;2023-04-24T15:19:58;101739.28;;;23.09;34.62
56632;BME280;42503;39.928;-75.152;2023-04-24T15:30:01;101684.78;;;22.76;34.48
56632;BME280;42503;39.928;-75.152;2023-04-24T15:40:03;101699.91;;;22.95;34.42
56632;BME280;42503;39.928;-75.152;2023-04-24T15:50:06;101711.38;;;23.04;34.34
56632;BME280;42503;39.928;-75.152;2023-04-24T16:00:10;101713.91;;;23.11;34.42
56632;BME280;42503;39.928;-75.152;2023-04-24T16:10:12;101716.41;;;23.12;34.38
56632;BME280;42503;39.928;-75.152;2023-04-24T16:20:14;101686.00;;;23.00;34.55
56632;BME280;42503;39.928;-75.152;2023-04-24T16:30:15;101684.03;;;23.06;34.36
56632;BME280;42503;39.928;-75.152;2023-04-24T16:40:26;101680.94;;;23.13;34.15
56632;BME280;42503;39.928;-75.152;2023-04-24T16:50:27;101680.69;;;23.14;34.07
56632;BME280;42503;39.928;-75.152;2023-04-24T17:00:31;101672.31;;;23.14;34.10
56632;BME280;42503;39.928;-75.152;2023-04-24T17:10:33;101662.53;;;23.17;34.12
56632;BME280;42503;39.928;-75.152;2023-04-24T17:20:34;101641.03;;;23.07;34.22
56632;BME280;42503;39.928;-75.152;2023-04-24T17:30:38;101657.22;;;23.20;33.81
56632;BME280;42503;39.928;-75.152;2023-04-24T17:40:40;101627.66;;;23.14;33.60
56632;BME280;42503;39.928;-75.152;2023-04-24T17:50:41;101629.84;;;23.17;33.47
56632;BME280;42503;39.928;-75.152;2023-04-24T18:00:45;101630.97;;;23.21;33.29
56632;BME280;42503;39.928;-75.152;2023-04-24T18:10:47;101603.09;;;23.01;33.50
56632;BME280;42503;39.928;-75.152;2023-04-24T18:20:55;101631.81;;;23.22;33.41
56632;BME280;42503;39.928;-75.152;2023-04-24T18:30:57;101622.06;;;23.19;33.33
56632;BME280;42503;39.928;-75.152;2023-04-24T18:40:58;101600.00;;;23.13;33.19
56632;BME280;42503;39.928;-75.152;2023-04-24T18:51:00;101609.47;;;23.22;33.61
56632;BME280;42503;39.928;-75.152;2023-04-24T19:01:07;101615.88;;;23.22;33.34
56632;BME280;42503;39.928;-75.152;2023-04-24T19:11:09;101606.69;;;23.22;33.24
56632;BME280;42503;39.928;-75.152;2023-04-24T19:21:11;101586.88;;;23.13;33.41
56632;BME280;42503;39.928;-75.152;2023-04-24T19:31:12;101508.72;;;22.67;33.73
56632;BME280;42503;39.928;-75.152;2023-04-24T19:41:14;101597.47;;;23.21;33.09
56632;BME280;42503;39.928;-75.152;2023-04-24T19:51:15;101599.72;;;23.19;33.46
56632;BME280;42503;39.928;-75.152;2023-04-24T20:01:17;101594.13;;;23.19;33.19
56632;BME280;42503;39.928;-75.152;2023-04-24T20:11:18;101590.50;;;23.19;33.58
56632;BME280;42503;39.928;-75.152;2023-04-24T20:21:20;101598.03;;;23.18;33.21
56632;BME280;42503;39.928;-75.152;2023-04-24T20:31:24;101579.91;;;23.11;33.03
56632;BME280;42503;39.928;-75.152;2023-04-24T20:41:28;101607.53;;;23.17;33.21
56632;BME280;42503;39.928;-75.152;2023-04-24T20:51:30;101610.31;;;23.17;33.28
56632;BME280;42503;39.928;-75.152;2023-04-24T21:01:32;101579.63;;;23.02;33.20
56632;BME280;42503;39.928;-75.152;2023-04-24T21:11:33;101604.19;;;23.15;33.36
56632;BME280;42503;39.928;-75.152;2023-04-24T21:21:35;101620.66;;;23.17;33.46
56632;BME280;42503;39.928;-75.152;2023-04-24T21:31:36;101620.94;;;23.15;33.04
56632;BME280;42503;39.928;-75.152;2023-04-24T21:41:38;101622.59;;;23.16;33.75
56632;BME280;42503;39.928;-75.152;2023-04-24T21:51:39;101591.88;;;22.91;33.66
56632;BME280;42503;39.928;-75.152;2023-04-24T22:01:40;101632.94;;;23.21;34.41
56632;BME280;42503;39.928;-75.152;2023-04-24T22:11:42;101625.41;;;23.21;34.17
56632;BME280;42503;39.928;-75.152;2023-04-24T22:21:43;101638.22;;;23.22;34.42
56632;BME280;42503;39.928;-75.152;2023-04-24T22:31:47;101642.44;;;23.25;34.85
56632;BME280;42503;39.928;-75.152;2023-04-24T22:41:50;101621.50;;;23.07;34.99
56632;BME280;42503;39.928;-75.152;2023-04-24T22:51:52;101657.22;;;23.25;35.02
56632;BME280;42503;39.928;-75.152;2023-04-24T23:01:53;101613.13;;;22.97;34.70
56632;BME280;42503;39.928;-75.152;2023-04-24T23:11:57;101656.69;;;23.23;34.99
56632;BME280;42503;39.928;-75.152;2023-04-24T23:21:59;101666.16;;;23.22;35.11
56632;BME280;42503;39.928;-75.152;2023-04-24T23:32:00;101675.38;;;23.23;34.71
56632;BME280;42503;39.928;-75.152;2023-04-24T23:42:03;101701.34;;;23.23;34.99
56632;BME280;42503;39.928;-75.152;2023-04-24T23:52:05;101692.69;;;23.25;35.00
